Time;durP1;ratioP1;P1;durP2;ratioP2;P2;SDS_P1;SDS_P2;PMS_P1;PMS_P2;Temp;Humidity;BMP_temperature;BMP_pressure;BME280_temperature;BME280_humidity;BME280_pressure;Samples;Min_cycle;Max_cycle;Signal;HPM_P1;HPM_P2
2022/08/12 00:44:55;;;;;;;6.05;3.47;;;19.20;99.90;;;;;;5052919;28;20176;-49
2022/08/12 00:47:22;;;;;;;3.83;3.53;;;19.10;99.90;;;;;;5053725;28;20032;-53
2022/08/12 00:49:48;;;;;;;9.00;3.20;;;19.00;99.90;;;;;;5053347;28;20182;-50
2022/08/12 00:52:17;;;;;;;3.70;2.92;;;19.10;99.90;;;;;;5053243;28;20047;-49
2022/08/12 00:54:48;;;;;;;3.72;3.38;;;19.00;99.90;;;;;;5052417;28;20049;-52
2022/08/12 00:57:19;;;;;;;3.65;3.35;;;18.90;99.90;;;;;;5052481;28;20041;-51
2022/08/12 00:59:51;;;;;;;5.03;3.20;;;18.90;99.90;;;;;;5051653;28;20579;-49
2022/08/12 01:02:24;;;;;;;5.28;3.30;;;18.90;99.90;;;;;;5053130;28;20135;-50
2022/08/12 01:13:17;;;;;;;3.92;3.45;;;18.70;99.90;;;;;;5052597;28;20052;-50
2022/08/12 01:15:45;;;;;;;3.97;3.45;;;18.70;99.90;;;;;;5053501;28;20051;-50
2022/08/12 01:18:12;;;;;;;;;;;18.70;99.90;;;;;;5053380;28;20049;-54
2022/08/12 01:20:52;;;;;;;6.13;3.47;;;18.60;99.90;;;;;;5053281;28;20279;-50
2022/08/12 01:23:44;;;;;;;8.38;4.10;;;18.70;99.90;;;;;;5051517;28;20037;-48
2022/08/12 01:26:22;;;;;;;4.00;3.70;;;18.60;99.90;;;;;;5052035;28;20052;-48
2022/08/12 01:28:50;;;;;;;5.25;3.83;;;18.60;99.90;;;;;;5052347;28;20039;-50
2022/08/12 01:31:17;;;;;;;4.20;3.80;;;18.50;99.90;;;;;;5052987;28;20383;-49
2022/08/12 01:34:03;;;;;;;;;;;18.60;99.90;;;;;;5052329;28;20089;-51
2022/08/12 01:36:50;;;;;;;5.78;3.88;;;18.50;99.90;;;;;;5050633;28;20055;-47
2022/08/12 01:39:16;;;;;;;4.97;4.03;;;18.50;99.90;;;;;;5045360;28;20071;-47
2022/08/12 01:41:51;;;;;;;6.32;3.95;;;18.50;99.90;;;;;;5052255;28;20052;-48
2022/08/12 01:44:19;;;;;;;6.13;4.75;;;18.60;99.90;;;;;;5049951;28;20054;-49
2022/08/12 01:47:10;;;;;;;5.47;4.35;;;18.50;99.90;;;;;;5051926;28;20206;-52
2022/08/12 01:49:39;;;;;;;4.50;3.58;;;18.40;99.90;;;;;;5052759;28;20040;-47
2022/08/12 01:52:06;;;;;;;4.28;3.85;;;18.40;99.90;;;;;;5051952;28;20056;-47
2022/08/12 01:54:43;;;;;;;5.10;4.28;;;18.40;99.90;;;;;;5051915;28;20033;-49
2022/08/12 01:57:17;;;;;;;6.40;3.90;;;18.30;99.90;;;;;;5051772;28;20119;-49
2022/08/12 01:59:58;;;;;;;6.80;4.20;;;18.30;99.90;;;;;;5051552;28;20080;-46
2022/08/12 02:02:38;;;;;;;5.32;4.03;;;18.30;99.90;;;;;;5052418;28;20053;-48
2022/08/12 02:11:34;;;;;;;5.15;4.50;;;18.20;99.90;;;;;;5055618;28;20402;-48
2022/08/12 02:14:28;;;;;;;6.75;4.82;;;18.10;99.90;;;;;;5054972;28;20452;-49
2022/08/12 02:17:18;;;;;;;4.82;4.43;;;18.00;99.90;;;;;;5056027;28;20202;-47
2022/08/12 02:19:55;;;;;;;6.03;5.05;;;18.00;99.90;;;;;;5055141;28;20048;-47
2022/08/12 02:22:41;;;;;;;5.67;4.63;;;18.00;99.90;;;;;;5056033;28;20040;-48
2022/08/12 02:25:31;;;;;;;5.40;4.70;;;18.00;99.90;;;;;;5056370;28;20049;-49
2022/08/12 02:27:56;;;;;;;5.85;4.40;;;17.90;99.90;;;;;;5054851;28;20090;-50
2022/08/12 02:30:28;;;;;;;4.95;4.45;;;17.90;99.90;;;;;;5055753;28;20041;-52
2022/08/12 02:32:55;;;;;;;5.78;4.60;;;17.90;99.90;;;;;;5055119;28;20044;-48
2022/08/12 02:35:23;;;;;;;6.05;4.38;;;17.80;99.90;;;;;;5056105;28;20055;-50
2022/08/12 02:37:51;;;;;;;5.43;4.50;;;17.80;99.90;;;;;;5055929;28;20090;-49
2022/08/12 02:40:18;;;;;;;5.90;4.72;;;17.80;99.90;;;;;;5119719;22;20062;-68
2022/08/12 02:43:21;;;;;;;5.50;4.85;;;17.70;99.90;;;;;;5079510;28;20042;-68
2022/08/12 02:45:56;;;;;;;6.28;4.97;;;17.70;99.90;;;;;;5079678;28;20383;-68
2022/08/12 02:48:27;;;;;;;6.60;4.97;;;17.60;99.90;;;;;;5078991;28;20567;-68
2022/08/12 02:50:56;;;;;;;5.72;4.85;;;17.60;99.90;;;;;;5079193;28;20085;-68
2022/08/12 02:53:23;;;;;;;7.22;5.50;;;;;;;;;;5081083;28;20044;-68
2022/08/12 02:55:49;;;;;;;5.20;4.72;;;;;;;;;;5078364;28;20058;-68
2022/08/12 02:58:15;;;;;;;8.32;5.28;;;;;;;;;;5079339;28;20052;-67
2022/08/12 03:00:43;;;;;;;6.05;5.28;;;;;;;;;;5079309;28;20128;-68
2022/08/12 03:03:11;;;;;;;7.13;5.70;;;;;;;;;;5079195;28;20145;-68
2022/08/12 03:05:49;;;;;;;6.15;5.60;;;;;;;;;;5078226;28;20532;-68
2022/08/12 03:08:18;;;;;;;6.57;5.10;;;;;;;;;;5078819;28;20048;-68
2022/08/12 03:10:45;;;;;;;6.35;5.75;;;;;;;;;;5078487;28;20043;-69
2022/08/12 03:13:13;;;;;;;7.90;5.07;;;;;;;;;;5078742;28;20036;-68
2022/08/12 03:15:39;;;;;;;8.00;5.60;;;;;;;;;;5077792;28;20441;-68
2022/08/12 03:18:16;;;;;;;6.10;5.20;;;17.40;99.90;;;;;;5077240;28;20064;-67
2022/08/12 03:20:42;;;;;;;9.20;5.60;;;17.40;99.90;;;;;;5079157;28;20534;-68
2022/08/12 03:23:13;;;;;;;10.15;5.55;;;17.30;99.90;;;;;;5078665;28;20032;-67
2022/08/12 03:25:41;;;;;;;6.72;5.43;;;17.30;99.90;;;;;;5078420;28;20126;-68
2022/08/12 03:28:09;;;;;;;7.68;5.45;;;17.20;99.90;;;;;;5060905;28;20097;-68
2022/08/12 03:30:37;;;;;;;6.32;5.40;;;17.20;99.90;;;;;;5078995;28;20032;-68
2022/08/12 03:33:04;;;;;;;6.88;5.45;;;17.10;99.90;;;;;;5077812;28;20044;-68
2022/08/12 03:35:32;;;;;;;7.88;5.18;;;17.10;99.90;;;;;;5078106;28;20036;-68
2022/08/12 03:38:04;;;;;;;;;;;17.10;99.90;;;;;;5096092;28;20435;-68
2022/08/12 04:00:19;;;;;;;6.30;5.80;;;16.90;99.90;;;;;;5095284;28;20044;-67
2022/08/12 04:02:54;;;;;;;7.90;5.82;;;16.90;99.90;;;;;;5095499;28;20055;-68
2022/08/12 04:05:20;;;;;;;8.80;6.47;;;17.00;99.90;;;;;;5095988;28;20036;-68
2022/08/12 04:07:47;;;;;;;6.60;5.82;;;16.90;99.90;;;;;;5095526;28;20140;-67
2022/08/12 04:10:12;;;;;;;6.97;6.00;;;16.80;99.90;;;;;;5095512;28;20044;-67
2022/08/12 04:15:27;;;;;;;8.25;5.18;;;16.80;99.90;;;;;;5095180;28;20479;-67
2022/08/12 04:17:53;;;;;;;9.13;5.88;;;16.80;99.90;;;;;;5095035;28;20127;-67
2022/08/12 04:20:20;;;;;;;6.78;5.85;;;16.80;99.90;;;;;;5095111;28;20068;-67
2022/08/12 04:22:46;;;;;;;6.87;6.17;;;16.80;99.90;;;;;;5095093;28;20452;-68
2022/08/12 04:25:12;;;;;;;7.25;5.72;;;16.70;99.90;;;;;;5094655;28;20040;-67
2022/08/12 04:27:42;;;;;;;8.63;6.25;;;16.80;99.90;;;;;;5094929;28;20093;-68
2022/08/12 04:30:09;;;;;;;7.43;6.70;;;16.70;99.90;;;;;;5094781;28;20398;-67
2022/08/12 04:32:35;;;;;;;7.30;5.97;;;16.70;99.90;;;;;;5095016;28;20040;-68
2022/08/12 04:35:02;;;;;;;7.03;6.13;;;16.70;99.90;;;;;;5094857;28;20066;-68
2022/08/12 04:37:28;;;;;;;6.33;5.60;;;16.70;99.90;;;;;;5094547;28;20048;-67
2022/08/12 04:39:55;;;;;;;6.40;5.85;;;16.70;99.90;;;;;;5094258;28;20297;-68
2022/08/12 04:42:24;;;;;;;7.30;6.60;;;16.70;99.90;;;;;;5094644;28;20109;-67
2022/08/12 04:44:50;;;;;;;7.25;6.20;;;16.80;99.90;;;;;;5094404;28;20040;-67
2022/08/12 04:47:15;;;;;;;6.30;5.70;;;16.80;99.90;;;;;;5094543;28;20486;-68
2022/08/12 04:49:44;;;;;;;6.72;5.97;;;16.80;99.90;;;;;;5093041;28;20040;-67
2022/08/12 04:52:10;;;;;;;10.45;6.00;;;16.90;99.90;;;;;;5094510;28;20048;-67
2022/08/12 04:54:37;;;;;;;7.07;6.03;;;17.60;99.90;;;;;;5093092;28;20101;-67
2022/08/12 04:57:04;;;;;;;6.88;6.18;;;17.80;99.90;;;;;;5094472;28;20040;-68
2022/08/12 04:59:31;;;;;;;7.10;6.50;;;17.70;99.90;;;;;;5094270;28;20047;-67
2022/08/12 05:01:57;;;;;;;6.18;5.57;;;17.70;99.90;;;;;;5094351;28;20414;-67
2022/08/12 05:04:25;;;;;;;6.93;5.90;;;18.00;99.90;;;;;;5094283;28;20036;-68
2022/08/12 05:06:51;;;;;;;9.15;5.55;;;18.60;99.90;;;;;;5092671;28;20486;-67
2022/08/12 05:09:17;;;;;;;7.97;5.53;;;18.90;99.90;;;;;;5094103;28;20043;-68
2022/08/12 05:11:46;;;;;;;7.22;5.25;;;;;;;;;;5094103;28;20109;-68
2022/08/12 05:14:12;;;;;;;5.80;5.20;;;18.70;99.90;;;;;;5094142;28;20070;-67
2022/08/12 05:16:38;;;;;;;5.80;5.18;;;18.50;99.90;;;;;;5094101;28;20047;-68
2022/08/12 05:19:05;;;;;;;9.10;5.97;;;18.30;99.90;;;;;;5094812;28;20073;-68
2022/08/12 05:21:31;;;;;;;7.57;5.60;;;18.20;99.90;;;;;;5093937;28;20044;-68
2022/08/12 05:23:56;;;;;;;5.15;4.75;;;18.10;99.90;;;;;;5095250;28;20372;-67
2022/08/12 05:26:22;;;;;;;5.72;4.88;;;18.10;99.90;;;;;;5094018;28;20036;-68
2022/08/12 05:28:48;;;;;;;6.13;5.50;;;18.00;99.90;;;;;;5093918;28;20395;-68
2022/08/12 05:31:16;;;;;;;6.97;5.55;;;18.00;99.90;;;;;;5093765;28;20050;-68
2022/08/12 05:33:44;;;;;;;7.13;5.80;;;18.80;99.90;;;;;;5093901;28;20452;-69
2022/08/12 05:36:12;;;;;;;8.55;6.18;;;19.40;99.90;;;;;;5093679;28;20050;-69
2022/08/12 05:38:55;;;;;;;5.55;5.05;;;20.40;99.90;;;;;;5093814;28;20040;-68
2022/08/12 05:41:23;;;;;;;5.63;5.07;;;21.40;99.90;;;;;;5093174;28;20044;-68
2022/08/12 05:43:54;;;;;;;5.53;4.90;;;22.20;99.90;;;;;;5093687;28;20406;-68
2022/08/12 05:46:21;;;;;;;5.88;4.90;;;22.70;99.90;;;;;;5093389;28;20040;-68
2022/08/12 05:48:48;;;;;;;6.47;4.90;;;23.50;99.90;;;;;;5093182;28;20093;-68
2022/08/12 05:51:14;;;;;;;5.90;5.03;;;23.90;99.90;;;;;;5093609;28;20058;-68
2022/08/12 05:53:40;;;;;;;5.18;4.60;;;24.50;99.90;;;;;;5093596;28;20073;-69
2022/08/12 05:56:18;;;;;;;6.70;4.57;;;;;;;;;;5093353;28;20089;-69
2022/08/12 05:58:45;;;;;;;6.50;4.70;;;25.40;99.90;;;;;;5093634;28;20048;-68
2022/08/12 06:01:10;;;;;;;5.07;4.00;;;25.60;99.90;;;;;;5093618;28;20059;-67
2022/08/12 06:03:36;;;;;;;4.88;4.43;;;25.50;99.90;;;;;;5093462;28;20036;-68
2022/08/12 06:06:02;;;;;;;5.95;3.92;;;26.10;99.90;;;;;;5091936;28;20050;-68
2022/08/12 06:08:27;;;;;;;6.75;4.10;;;25.90;99.60;;;;;;5093228;28;20406;-68
2022/08/12 06:10:55;;;;;;;7.38;4.15;;;26.20;99.50;;;;;;5093380;28;20115;-68
2022/08/12 06:13:21;;;;;;;6.35;4.13;;;26.30;98.60;;;;;;5093174;28;20044;-68
2022/08/12 06:15:48;;;;;;;4.20;3.80;;;26.60;98.40;;;;;;5093031;28;20116;-68
2022/08/12 06:18:14;;;;;;;4.75;4.35;;;27.10;98.60;;;;;;5092226;28;20040;-68
2022/08/12 06:20:39;;;;;;;5.57;4.22;;;27.30;97.40;;;;;;5093313;28;20040;-68
2022/08/12 06:23:05;;;;;;;5.93;4.75;;;27.60;96.90;;;;;;5093272;28;20407;-68
2022/08/12 06:25:33;;;;;;;5.07;4.53;;;28.10;95.70;;;;;;5091936;28;20073;-68
2022/08/12 06:28:02;;;;;;;5.30;4.30;;;27.70;94.60;;;;;;5093096;28;20051;-67
2022/08/12 06:30:29;;;;;;;5.88;4.25;;;27.80;94.50;;;;;;5094250;28;20055;-68
2022/08/12 06:32:55;;;;;;;4.80;4.07;;;28.40;94.40;;;;;;5093272;28;20044;-69
2022/08/12 06:35:20;;;;;;;6.10;4.07;;;28.70;92.70;;;;;;5093233;28;20032;-68
2022/08/12 06:37:51;;;;;;;5.18;3.72;;;28.50;93.20;;;;;;5093872;28;20046;-68
2022/08/12 06:43:04;;;;;;;4.43;3.80;;;28.70;93.20;;;;;;5093066;28;20055;-68
2022/08/12 06:45:30;;;;;;;6.32;3.70;;;29.00;92.30;;;;;;5091571;28;20083;-68
2022/08/12 06:47:58;;;;;;;4.73;3.80;;;28.60;91.90;;;;;;5092878;28;20502;-68
2022/08/12 06:50:25;;;;;;;4.10;3.60;;;28.90;91.70;;;;;;5092971;28;20640;-68
2022/08/12 06:52:51;;;;;;;8.10;3.60;;;28.90;91.40;;;;;;5091714;28;20051;-68
2022/08/12 06:55:19;;;;;;;7.72;3.92;;;;;;;;;;5096682;28;20402;-69
2022/08/12 06:58:04;;;;;;;4.20;3.80;;;28.40;90.90;;;;;;5096691;28;20044;-68
2022/08/12 07:00:32;;;;;;;4.20;3.80;;;27.90;91.20;;;;;;5095504;28;20447;-68
2022/08/12 07:03:00;;;;;;;5.68;3.72;;;28.00;91.40;;;;;;5096746;28;20097;-69
2022/08/12 07:05:25;;;;;;;;;;;28.20;90.90;;;;;;5097081;28;20051;-68
2022/08/12 07:07:54;;;;;;;4.30;3.90;;;28.30;90.70;;;;;;5095026;28;20015;-68
2022/08/12 07:10:23;;;;;;;4.88;4.13;;;28.20;90.30;;;;;;5096239;28;20495;-69
2022/08/12 07:12:53;;;;;;;4.97;4.20;;;28.40;90.20;;;;;;5096568;28;20036;-68
2022/08/12 07:15:24;;;;;;;5.10;4.32;;;28.40;90.30;;;;;;5096203;28;20182;-69
2022/08/12 07:18:04;;;;;;;4.28;3.90;;;28.50;90.60;;;;;;5096508;28;20397;-68
2022/08/12 07:20:34;;;;;;;6.68;3.80;;;28.40;90.40;;;;;;5096386;28;20032;-69
2022/08/12 07:23:01;;;;;;;6.95;4.50;;;28.50;90.20;;;;;;5096352;28;20450;-68
2022/08/12 07:25:30;;;;;;;5.18;3.72;;;28.90;89.90;;;;;;5096307;28;20048;-68
2022/08/12 07:28:02;;;;;;;7.32;3.90;;;28.90;89.30;;;;;;5095997;28;20461;-68
2022/08/12 07:30:32;;;;;;;5.22;3.85;;;28.60;89.80;;;;;;5077754;28;20086;-69
2022/08/12 07:33:00;;;;;;;6.57;3.90;;;28.40;89.30;;;;;;5094617;28;20127;-69
2022/08/12 07:35:27;;;;;;;5.38;3.70;;;28.10;89.20;;;;;;5095985;28;20051;-68
2022/08/12 07:37:54;;;;;;;;;;;27.90;89.10;;;;;;5095023;28;20051;-68
2022/08/12 07:40:20;;;;;;;;;;;27.30;90.00;;;;;;5094822;28;20294;-68
2022/08/12 07:42:46;;;;;;;5.47;3.73;;;26.90;90.40;;;;;;5094768;28;20414;-69
2022/08/12 07:45:12;;;;;;;3.83;3.38;;;26.60;91.00;;;;;;5095962;28;20051;-69
2022/08/12 07:47:42;;;;;;;3.50;3.20;;;26.20;91.00;;;;;;5095720;28;20571;-68
2022/08/12 07:50:12;;;;;;;5.75;3.40;;;26.10;91.80;;;;;;5096269;28;20047;-68
2022/08/12 07:52:42;;;;;;;4.10;3.33;;;26.00;92.00;;;;;;5095603;28;20036;-68
2022/08/12 07:55:09;;;;;;;3.90;3.15;;;25.90;92.70;;;;;;5095528;28;20407;-68
2022/08/12 07:57:47;;;;;;;4.53;2.92;;;26.00;92.10;;;;;;5095392;28;20047;-68
2022/08/12 08:00:13;;;;;;;5.68;3.05;;;25.80;92.10;;;;;;5095629;28;20032;-68
2022/08/12 08:02:39;;;;;;;4.47;3.27;;;26.00;92.20;;;;;;5094111;28;20086;-68
2022/08/12 08:05:05;;;;;;;5.70;2.95;;;26.10;92.00;;;;;;5095071;28;20036;-69
2022/08/12 08:07:30;;;;;;;7.43;3.40;;;26.40;92.20;;;;;;5095272;28;20083;-69
2022/08/12 08:09:58;;;;;;;8.55;3.38;;;26.30;91.80;;;;;;5095094;28;20079;-68
2022/08/12 08:15:09;;;;;;;8.00;4.18;;;26.40;92.30;;;;;;5095215;28;20080;-68
2022/08/12 08:17:36;;;;;;;4.38;3.97;;;26.30;92.40;;;;;;5095037;28;20048;-68
2022/08/12 08:20:04;;;;;;;5.78;4.43;;;26.30;92.40;;;;;;5095217;28;20072;-68
2022/08/12 08:22:33;;;;;;;6.32;4.13;;;26.30;92.40;;;;;;5095083;28;20048;-68
2022/08/12 08:24:58;;;;;;;6.15;4.47;;;26.40;92.60;;;;;;5094747;28;20418;-68
2022/08/12 08:27:24;;;;;;;5.13;3.85;;;26.50;92.30;;;;;;5093533;28;20039;-68
2022/08/12 08:29:50;;;;;;;6.15;3.40;;;26.40;92.00;;;;;;5094942;28;20047;-68
2022/08/12 08:32:16;;;;;;;4.35;3.20;;;26.70;92.50;;;;;;5094989;28;20040;-69
2022/08/12 08:34:44;;;;;;;4.95;3.22;;;26.80;92.60;;;;;;5094858;28;20391;-68
2022/08/12 08:37:14;;;;;;;5.57;3.55;;;26.90;91.90;;;;;;5093343;28;20052;-68
2022/08/12 08:39:40;;;;;;;3.40;3.10;;;27.20;91.40;;;;;;5094244;28;20410;-68
2022/08/12 08:44:50;;;;;;;6.97;3.40;;;27.30;91.20;;;;;;5094792;28;20056;-68
2022/08/12 08:47:16;;;;;;;4.70;3.15;;;27.50;91.30;;;;;;5094882;28;20463;-69
2022/08/12 08:49:42;;;;;;;6.38;3.30;;;27.60;90.90;;;;;;5094540;28;20036;-68
2022/08/12 08:52:10;;;;;;;6.00;3.30;;;27.50;91.00;;;;;;5094369;28;20113;-68
2022/08/12 08:54:36;;;;;;;4.30;3.53;;;27.50;90.80;;;;;;5094630;28;20109;-68
2022/08/12 08:57:04;;;;;;;5.75;3.45;;;27.50;90.70;;;;;;5094793;28;20456;-68
2022/08/12 08:59:30;;;;;;;4.70;3.30;;;27.50;90.10;;;;;;5094336;28;20402;-68
2022/08/12 09:01:56;;;;;;;6.07;3.20;;;27.60;90.30;;;;;;5094770;28;20032;-68
2022/08/12 09:04:24;;;;;;;4.88;2.95;;;27.60;90.10;;;;;;5094137;28;20043;-68
2022/08/12 09:06:53;;;;;;;3.58;2.70;;;27.70;88.90;;;;;;5092722;28;20048;-68
2022/08/12 09:09:19;;;;;;;6.00;2.75;;;27.80;90.10;;;;;;5094152;28;20398;-68
2022/08/12 09:14:29;;;;;;;5.13;3.00;;;27.80;88.50;;;;;;5094499;28;20127;-69
2022/08/12 09:16:54;;;;;;;4.40;3.20;;;28.10;88.50;;;;;;5093269;28;20071;-68
2022/08/12 09:19:20;;;;;;;3.78;2.92;;;28.00;87.70;;;;;;5094046;28;20118;-69
2022/08/12 09:21:47;;;;;;;4.38;2.85;;;28.20;86.40;;;;;;5092776;28;20079;-68
2022/08/12 09:24:17;;;;;;;3.78;2.80;;;28.40;85.10;;;;;;5094055;28;20055;-68
2022/08/12 09:26:43;;;;;;;4.50;2.75;;;28.40;84.90;;;;;;5093792;28;20487;-68
2022/08/12 09:29:09;;;;;;;9.55;2.80;;;28.60;84.80;;;;;;5093645;28;20055;-68
2022/08/12 09:31:35;;;;;;;6.25;3.10;;;28.70;83.80;;;;;;5093792;28;20036;-68
2022/08/12 09:34:00;;;;;;;5.47;2.75;;;28.70;83.00;;;;;;5093434;28;20041;-68
2022/08/12 09:36:26;;;;;;;4.78;2.63;;;28.80;83.00;;;;;;5093777;28;20044;-68
2022/08/12 09:38:52;;;;;;;3.78;2.83;;;29.10;83.70;;;;;;5093474;28;20062;-69
2022/08/12 09:41:19;;;;;;;4.43;2.88;;;29.20;82.20;;;;;;5093779;28;20078;-69
2022/08/12 09:46:30;;;;;;;4.20;2.75;;;29.40;80.10;;;;;;5093302;28;20094;-68
2022/08/12 09:48:57;;;;;;;5.88;2.97;;;29.60;81.90;;;;;;5093546;28;20083;-68
2022/08/12 09:51:25;;;;;;;5.68;2.90;;;29.50;79.70;;;;;;5093385;28;20058;-68
2022/08/12 09:53:51;;;;;;;2.90;2.67;;;29.70;81.00;;;;;;5093558;28;20093;-69
2022/08/12 09:56:18;;;;;;;3.67;2.70;;;29.80;79.00;;;;;;5092464;28;20043;-69
2022/08/12 09:58:49;;;;;;;3.80;2.72;;;29.70;78.10;;;;;;5093137;28;20087;-68
2022/08/12 10:01:17;;;;;;;3.35;2.60;;;29.90;78.00;;;;;;5093699;28;20051;-68
2022/08/12 10:03:42;;;;;;;6.10;2.50;;;29.90;76.40;;;;;;5093473;28;20119;-69
2022/08/12 10:06:09;;;;;;;4.70;2.40;;;30.10;76.10;;;;;;5092085;28;20127;-69
2022/08/12 10:08:37;;;;;;;4.80;2.60;;;30.20;75.00;;;;;;5093554;28;20074;-68
2022/08/12 10:13:52;;;;;;;3.83;2.28;;;30.10;74.20;;;;;;5093330;28;20483;-68
2022/08/12 10:16:21;;;;;;;7.10;2.72;;;30.00;72.80;;;;;;5092433;28;20142;-68
2022/08/12 10:18:58;;;;;;;8.93;2.53;;;30.40;73.60;;;;;;5094059;28;20048;-68
2022/08/12 10:21:35;;;;;;;3.35;2.22;;;30.40;72.00;;;;;;5092973;28;20067;-68
2022/08/12 10:24:03;;;;;;;6.00;2.30;;;30.40;72.50;;;;;;5093458;28;20106;-68
2022/08/12 10:31:59;;;;;;;2.45;2.10;;;30.50;70.40;;;;;;5096904;28;20391;-68
2022/08/12 10:34:26;;;;;;;6.32;2.30;;;30.60;68.50;;;;;;5096004;28;20055;-68
2022/08/12 10:36:57;;;;;;;3.45;2.45;;;30.60;69.50;;;;;;5095890;28;20043;-68
2022/08/12 10:39:26;;;;;;;4.78;2.30;;;30.80;69.90;;;;;;5097129;28;20098;-69
2022/08/12 10:44:37;;;;;;;10.35;2.40;;;30.90;69.30;;;;;;5095652;28;20056;-69
2022/08/12 10:47:03;;;;;;;5.23;2.40;;;31.00;68.50;;;;;;5096880;28;20050;-69
2022/08/12 10:49:33;;;;;;;4.78;2.00;;;30.90;68.40;;;;;;5095420;28;20044;-69
2022/08/12 10:52:01;;;;;;;3.88;2.30;;;30.90;65.20;;;;;;5096572;28;20439;-68
2022/08/12 10:54:27;;;;;;;2.35;2.10;;;31.00;65.50;;;;;;5095708;28;20066;-68
2022/08/12 10:56:56;;;;;;;3.93;1.80;;;31.00;64.20;;;;;;5096743;28;20040;-68
2022/08/12 10:59:23;;;;;;;2.25;2.00;;;31.00;65.40;;;;;;5096813;28;20470;-68
2022/08/12 11:01:51;;;;;;;4.53;2.55;;;31.00;65.50;;;;;;5096540;28;20490;-68
2022/08/12 11:04:17;;;;;;;2.30;2.10;;;31.10;66.20;;;;;;5096495;28;20449;-68
2022/08/12 11:06:47;;;;;;;3.95;2.35;;;31.20;65.30;;;;;;5095394;28;20052;-68
2022/08/12 11:09:31;;;;;;;2.28;2.17;;;31.10;64.30;;;;;;5096536;28;20032;-69
2022/08/12 11:12:05;;;;;;;4.63;2.22;;;30.90;63.30;;;;;;5096633;28;20056;-68
2022/08/12 11:14:37;;;;;;;2.42;2.20;;;31.20;63.80;;;;;;5096561;28;20048;-68
2022/08/12 11:17:06;;;;;;;5.72;2.30;;;31.30;64.20;;;;;;5096644;28;20044;-68
2022/08/12 11:19:33;;;;;;;3.28;2.33;;;31.40;63.50;;;;;;5096471;28;20051;-68
2022/08/12 11:21:59;;;;;;;5.53;2.65;;;31.20;62.70;;;;;;5096103;28;20036;-68
2022/08/12 11:24:26;;;;;;;7.53;2.40;;;31.20;62.90;;;;;;5096391;28;20040;-68
2022/08/12 11:26:53;;;;;;;4.75;2.42;;;31.20;62.20;;;;;;5096331;28;20353;-68
2022/08/12 11:29:21;;;;;;;2.15;1.98;;;31.10;62.00;;;;;;5096542;28;20047;-68
2022/08/12 11:31:47;;;;;;;3.38;2.00;;;31.30;61.80;;;;;;5095944;28;20048;-68
2022/08/12 11:34:13;;;;;;;5.05;2.20;;;31.30;60.60;;;;;;5094663;28;20113;-68
2022/08/12 11:36:47;;;;;;;5.28;1.88;;;31.50;61.00;;;;;;5095954;28;20032;-68
2022/08/12 11:39:13;;;;;;;3.03;2.22;;;31.60;62.30;;;;;;5095132;28;20150;-68
2022/08/12 11:41:39;;;;;;;7.65;2.38;;;31.70;61.00;;;;;;5095946;28;20510;-68
2022/08/12 11:44:05;;;;;;;5.53;2.50;;;31.80;61.30;;;;;;5095806;28;20051;-68
2022/08/12 11:46:37;;;;;;;3.95;2.38;;;31.90;60.70;;;;;;5095721;28;20479;-68
2022/08/12 11:49:03;;;;;;;4.75;2.25;;;32.10;60.60;;;;;;5095743;28;20039;-68
2022/08/12 11:51:30;;;;;;;4.70;2.08;;;31.90;59.40;;;;;;5094350;28;20051;-68
2022/08/12 11:53:55;;;;;;;3.63;2.17;;;31.60;58.80;;;;;;5094330;28;20044;-68
2022/08/12 11:56:21;;;;;;;2.85;2.15;;;31.70;58.80;;;;;;5095656;28;20039;-68
2022/08/12 11:58:47;;;;;;;3.75;1.95;;;31.60;59.40;;;;;;5095737;28;20490;-69
2022/08/12 12:01:13;;;;;;;2.97;2.10;;;31.80;59.60;;;;;;5095893;28;20071;-68
2022/08/12 12:03:39;;;;;;;5.50;2.37;;;31.90;59.50;;;;;;5095271;28;20449;-68
2022/08/12 12:06:04;;;;;;;2.70;2.30;;;31.90;59.80;;;;;;5095559;28;20065;-68
2022/08/12 12:08:30;;;;;;;6.20;2.30;;;31.90;57.90;;;;;;5095501;28;20474;-68
2022/08/12 12:10:56;;;;;;;4.00;2.00;;;31.90;58.30;;;;;;5095487;28;20395;-68
2022/08/12 12:13:22;;;;;;;4.53;2.10;;;32.00;57.70;;;;;;5095226;28;20055;-68
2022/08/12 12:15:48;;;;;;;3.67;2.10;;;32.00;58.60;;;;;;5094226;28;20044;-68
2022/08/12 12:18:24;;;;;;;3.40;1.73;;;32.10;58.00;;;;;;5094992;28;20479;-68
2022/08/12 12:20:51;;;;;;;3.70;2.15;;;32.10;56.90;;;;;;5095228;28;20054;-68
2022/08/12 12:23:17;;;;;;;4.60;2.10;;;32.10;57.50;;;;;;5095211;28;20380;-68
2022/08/12 12:25:42;;;;;;;3.35;2.15;;;32.20;57.20;;;;;;5094842;28;20048;-68
2022/08/12 12:28:08;;;;;;;2.70;2.30;;;32.20;58.40;;;;;;5094868;28;20036;-68
2022/08/12 12:30:35;;;;;;;4.13;2.53;;;32.30;57.00;;;;;;5094665;28;20040;-68
2022/08/12 12:33:00;;;;;;;3.03;1.95;;;32.30;57.50;;;;;;5093588;28;20051;-68
2022/08/12 12:35:26;;;;;;;3.20;2.20;;;32.20;56.40;;;;;;5095046;28;20032;-68
2022/08/12 12:37:59;;;;;;;3.00;2.20;;;32.00;56.50;;;;;;5094922;28;20040;-68
2022/08/12 12:40:27;;;;;;;4.40;2.20;;;32.10;57.80;;;;;;5094619;28;20081;-68
2022/08/12 12:42:53;;;;;;;7.50;2.30;;;32.00;56.60;;;;;;5094751;28;20109;-68
2022/08/12 12:45:19;;;;;;;3.08;2.30;;;32.10;57.50;;;;;;5094664;28;20061;-68
2022/08/12 12:48:12;;;;;;;3.53;2.23;;;32.10;56.30;;;;;;5094704;28;20118;-68
2022/08/12 12:53:35;;;;;;;;;;;32.00;56.90;;;;;;5094927;28;20048;-68
2022/08/12 12:56:01;;;;;;;;;;;32.20;57.30;;;;;;5093368;28;20382;-68
2022/08/12 12:58:28;;;;;;;2.53;2.30;;;32.20;56.10;;;;;;5094306;28;19924;-69
2022/08/12 13:00:57;;;;;;;;;;;32.00;56.50;;;;;;5094507;28;20380;-68
2022/08/12 13:03:22;;;;;;;4.10;2.10;;;32.20;56.60;;;;;;5094256;28;19952;-68
2022/08/12 13:05:49;;;;;;;5.60;2.47;;;32.20;55.90;;;;;;5092766;28;20040;-68
2022/08/12 13:08:23;;;;;;;2.22;2.10;;;32.10;55.20;;;;;;5093899;28;20508;-69
2022/08/12 13:10:49;;;;;;;2.55;2.15;;;32.20;56.30;;;;;;5075854;28;20078;-68
2022/08/12 13:13:17;;;;;;;4.72;2.35;;;32.40;54.70;;;;;;5093833;28;20066;-68
2022/08/12 13:15:42;;;;;;;4.32;2.25;;;32.30;54.30;;;;;;5094222;28;20455;-68
2022/08/12 13:18:08;;;;;;;4.40;2.17;;;32.30;54.60;;;;;;5094168;28;20040;-68
2022/08/12 13:20:33;;;;;;;2.37;1.83;;;32.30;54.00;;;;;;5094014;28;20055;-68
2022/08/12 13:22:59;;;;;;;6.90;2.20;;;32.30;54.40;;;;;;5094088;28;20051;-68
2022/08/12 13:25:25;;;;;;;3.13;2.13;;;32.30;54.60;;;;;;5093897;28;20125;-68
2022/08/12 13:27:51;;;;;;;5.40;2.23;;;32.60;55.60;;;;;;5093982;28;20054;-68
2022/08/12 13:30:22;;;;;;;3.67;2.33;;;32.40;54.80;;;;;;5092341;28;20040;-68
2022/08/12 13:32:59;;;;;;;2.95;2.20;;;32.60;55.50;;;;;;5093746;28;20070;-68
2022/08/12 13:35:28;;;;;;;2.70;2.00;;;32.70;54.80;;;;;;5093830;28;20067;-68
2022/08/12 13:37:55;;;;;;;3.13;2.30;;;32.80;54.50;;;;;;5093808;28;20050;-68
2022/08/12 13:40:21;;;;;;;;;;;32.90;54.10;;;;;;5094221;28;20054;-68
2022/08/12 13:42:47;;;;;;;5.97;2.50;;;32.90;53.90;;;;;;5093566;28;19999;-68
2022/08/12 13:45:14;;;;;;;5.80;1.88;;;32.70;54.10;;;;;;5093533;28;20085;-68
2022/08/12 13:48:09;;;;;;;;;;;32.80;55.30;;;;;;5093773;28;20544;-68
2022/08/12 13:50:38;;;;;;;2.78;1.98;;;32.80;53.70;;;;;;5079874;28;19920;-69
2022/08/12 13:53:09;;;;;;;2.15;2.00;;;32.60;53.30;;;;;;5093612;28;20040;-68
2022/08/12 13:55:44;;;;;;;4.95;2.28;;;32.80;55.60;;;;;;5093500;28;20044;-68
2022/08/12 13:58:12;;;;;;;5.75;2.15;;;32.80;53.00;;;;;;5093254;28;20437;-68
2022/08/12 14:00:38;;;;;;;3.67;2.15;;;32.90;53.90;;;;;;5075372;28;20036;-68
2022/08/12 14:03:04;;;;;;;4.77;2.20;;;32.90;53.70;;;;;;5093033;28;20046;-68
2022/08/12 14:05:32;;;;;;;3.22;2.25;;;33.10;54.00;;;;;;5093543;28;20119;-68
2022/08/12 14:08:07;;;;;;;3.40;2.17;;;33.20;54.70;;;;;;5091983;28;20048;-68
2022/08/12 14:10:52;;;;;;;5.15;1.95;;;33.30;53.40;;;;;;5093094;28;20506;-69
2022/08/12 14:13:26;;;;;;;3.05;2.00;;;33.50;52.80;;;;;;5093410;28;20444;-68
2022/08/12 14:15:58;;;;;;;3.17;2.47;;;33.30;52.80;;;;;;5093255;28;20051;-68
2022/08/12 14:18:30;;;;;;;4.97;2.10;;;33.50;53.50;;;;;;5093238;28;20398;-68
2022/08/12 14:21:15;;;;;;;3.92;2.35;;;33.00;52.80;;;;;;5093152;28;20040;-68
2022/08/12 14:23:42;;;;;;;4.40;2.28;;;32.90;52.60;;;;;;5093155;28;20048;-68
2022/08/12 14:26:10;;;;;;;3.95;2.30;;;32.90;53.60;;;;;;5092047;28;20054;-68
2022/08/12 14:28:38;;;;;;;2.13;1.88;;;32.90;52.80;;;;;;5091735;28;20055;-68
2022/08/12 14:31:09;;;;;;;4.78;2.15;;;32.80;52.00;;;;;;5093076;28;20036;-68
2022/08/12 14:33:47;;;;;;;5.15;2.35;;;32.70;51.90;;;;;;5091945;28;20048;-68
2022/08/12 14:36:18;;;;;;;2.78;1.90;;;32.90;51.90;;;;;;5093192;28;20127;-68
2022/08/12 14:38:44;;;;;;;2.83;1.90;;;33.00;54.20;;;;;;5092686;28;20475;-68
2022/08/12 14:41:18;;;;;;;3.45;2.10;;;32.90;52.60;;;;;;5093084;28;20094;-68
2022/08/12 14:43:47;;;;;;;4.80;2.20;;;32.60;52.10;;;;;;5093021;28;20072;-68
2022/08/12 14:46:17;;;;;;;3.28;2.20;;;32.40;51.10;;;;;;5092768;28;20115;-68
2022/08/12 14:48:46;;;;;;;5.68;2.10;;;32.70;53.10;;;;;;5093074;28;20124;-68
2022/08/12 14:51:12;;;;;;;2.50;2.20;;;32.70;52.50;;;;;;5093007;28;20040;-68